This is the latest recevied weather packets stored in our database for station/object WP3OF-5. If no packets are shown the sender has not sent any weather packets the latest 10 day(s).
| Time | Temp. | Humidity | Pressure | Rain* | Wind** | Luminosity | Snow |
|---|---|---|---|---|---|---|---|
| 1777649888 | 30.56° C | 61% | 1015.3 hPa | 0 mm | - | - | - |
| 1777649585 | 30.56° C | 62% | 1015.5 hPa | 0 mm | - | - | - |
| 1777649280 | 31.11° C | 61% | 1015.2 hPa | 0 mm | - | - | - |
| 1777648978 | 30.56° C | 62% | 1015.3 hPa | 0 mm | - | - | - |
| 1777648675 | 31.67° C | 58% | 1015.3 hPa | 0 mm | - | - | - |
| 1777648371 | 31.67° C | 57% | 1015.6 hPa | 0 mm | - | - | - |
| 1777648068 | 30.56° C | 58% | 1015.6 hPa | 0 mm | - | - | - |
| 1777647764 | 28.89° C | 67% | 1015.8 hPa | 0 mm | - | - | - |
| 1777647460 | 29.44° C | 66% | 1015.7 hPa | 0 mm | - | - | - |
| 1777647158 | 29.44° C | 64% | 1015.6 hPa | 0 mm | - | - | - |
| 1777646854 | 29.44° C | 64% | 1015.6 hPa | 0 mm | - | - | - |
| 1777646550 | 30° C | 62% | 1015.4 hPa | 0 mm | - | - | - |
| 1777646241 | 30° C | 62% | 1015.6 hPa | 0 mm | - | - | - |
| 1777645939 | 28.89° C | 66% | 1015.6 hPa | 0 mm | - | - | - |
| 1777645635 | 28.89° C | 67% | 1015.7 hPa | 0 mm | - | - | - |
| 1777645331 | 30° C | 65% | 1015.6 hPa | 0 mm | - | - | - |
| 1777645027 | 30.56° C | 63% | 1015.8 hPa | 0 mm | - | - | - |
| 1777644724 | 30° C | 64% | 1015.9 hPa | 0 mm | - | - | - |
| 1777644421 | 29.44° C | 67% | 1015.9 hPa | 0 mm | - | - | - |
| 1777644117 | 28.33° C | 72% | 1015.7 hPa | 0 mm | - | - | - |
| 1777643814 | 28.33° C | 71% | 1016.1 hPa | 0 mm | - | - | - |
| 1777643511 | 28.89° C | 73% | 1015.8 hPa | 0 mm | - | - | - |
| 1777643208 | 28.33° C | 75% | 1015.9 hPa | 0 mm | - | - | - |
| 1777642904 | 28.33° C | 74% | 1015.8 hPa | 0 mm | - | - | - |
| 1777642601 | 27.78° C | 73% | 1015.9 hPa | 0 mm | - | - | - |
* Rain latest hour (hover to see other rain measurements)
** Current wind speed in m/s (hover to see current wind gust speed)